createdAt,value
2018-08-17T00:00:49.409Z,12.77
2018-08-17T00:03:19.023Z,15.43
2018-08-17T00:05:48.281Z,13.43
2018-08-17T00:08:17.456Z,12.07
2018-08-17T00:10:46.893Z,14.10
2018-08-17T00:13:16.115Z,13.10
2018-08-17T00:15:45.255Z,12.27
2018-08-17T00:18:14.592Z,12.43
2018-08-17T00:20:44.179Z,12.50
2018-08-17T00:23:13.206Z,13.20
2018-08-17T00:25:43.245Z,13.77
2018-08-17T00:28:12.573Z,12.83
2018-08-17T00:30:41.741Z,11.97
2018-08-17T00:33:10.994Z,12.37
2018-08-17T00:35:40.111Z,12.67
2018-08-17T00:38:09.617Z,12.77
2018-08-17T00:40:38.899Z,11.70
2018-08-17T00:43:08.156Z,12.43
2018-08-17T00:45:37.538Z,13.47
2018-08-17T00:48:06.982Z,13.20
2018-08-17T00:50:36.444Z,13.00
2018-08-17T00:53:05.659Z,12.10
2018-08-17T00:55:34.926Z,12.50
2018-08-17T00:58:04.124Z,12.93
2018-08-17T01:00:33.460Z,13.17
2018-08-17T01:03:02.676Z,13.70
2018-08-17T01:05:32.233Z,14.50
2018-08-17T01:08:01.531Z,14.40
2018-08-17T01:10:30.551Z,14.43
2018-08-17T01:12:59.812Z,14.60
2018-08-17T01:15:29.435Z,13.80
2018-08-17T01:17:58.792Z,14.07
2018-08-17T01:20:27.914Z,14.30
2018-08-17T01:22:57.161Z,14.40
2018-08-17T01:25:26.347Z,13.50
2018-08-17T01:27:55.552Z,11.87
2018-08-17T01:30:24.807Z,12.20
2018-08-17T01:32:54.235Z,11.90
2018-08-17T01:35:23.444Z,11.23
2018-08-17T01:37:52.577Z,12.43
2018-08-17T01:40:21.875Z,12.07
2018-08-17T01:42:50.975Z,10.97
2018-08-17T01:45:20.431Z,12.60
2018-08-17T01:47:49.972Z,12.33
2018-08-17T01:50:19.326Z,12.77
2018-08-17T01:52:48.581Z,14.87
2018-08-17T01:55:18.127Z,14.30
2018-08-17T01:57:47.199Z,13.50
2018-08-17T02:00:16.435Z,14.63
2018-08-17T02:02:45.784Z,15.63
2018-08-17T02:05:14.910Z,14.67
2018-08-17T02:07:43.987Z,14.73
2018-08-17T02:10:13.464Z,14.23
2018-08-17T02:12:42.616Z,14.27
2018-08-17T02:15:11.869Z,17.77
2018-08-17T02:17:41.564Z,17.60
2018-08-17T02:20:10.753Z,15.93
2018-08-17T02:22:39.920Z,16.93
2018-08-17T02:25:09.421Z,17.03
2018-08-17T02:27:38.567Z,17.60
2018-08-17T02:30:07.963Z,17.00
2018-08-17T02:32:37.624Z,16.43
2018-08-17T02:35:06.718Z,17.70
2018-08-17T02:37:35.768Z,18.60
2018-08-17T02:40:05.407Z,17.47
2018-08-17T02:42:34.754Z,16.47
2018-08-17T02:45:03.972Z,17.90
2018-08-17T02:47:33.363Z,17.07
2018-08-17T02:50:02.849Z,16.87
2018-08-17T02:52:31.989Z,15.57
2018-08-17T02:55:01.261Z,18.23
2018-08-17T02:57:30.402Z,28.73
2018-08-17T02:59:59.615Z,25.80
2018-08-17T03:02:28.943Z,27.87
2018-08-17T03:04:58.272Z,25.60
2018-08-17T03:07:27.668Z,23.23
2018-08-17T03:09:57.021Z,23.20
2018-08-17T03:12:26.159Z,20.63
2018-08-17T03:14:55.431Z,18.87
2018-08-17T03:17:24.599Z,18.40
2018-08-17T03:19:53.880Z,18.77
2018-08-17T03:22:23.007Z,19.57
2018-08-17T03:24:52.512Z,18.30
2018-08-17T03:27:21.711Z,17.27
2018-08-17T03:29:50.959Z,16.50
2018-08-17T03:32:20.115Z,18.00
2018-08-17T03:34:49.463Z,16.30
2018-08-17T03:37:18.813Z,14.40
2018-08-17T03:39:49.443Z,15.27
2018-08-17T03:42:18.468Z,16.07
2018-08-17T03:44:47.640Z,15.83
2018-08-17T03:47:16.796Z,18.00
2018-08-17T03:49:46.024Z,20.40
2018-08-17T03:52:15.316Z,18.97
2018-08-17T03:54:44.688Z,21.13
2018-08-17T03:57:13.704Z,15.77
2018-08-17T03:59:43.060Z,16.73
2018-08-17T04:02:12.615Z,15.77
2018-08-17T04:04:41.723Z,17.30
2018-08-17T04:07:10.920Z,18.00
2018-08-17T04:09:39.964Z,19.33
2018-08-17T04:12:09.092Z,23.10
2018-08-17T04:14:38.336Z,22.73
2018-08-17T04:17:07.584Z,25.30
2018-08-17T04:19:37.979Z,24.50
2018-08-17T04:22:07.718Z,24.03
2018-08-17T04:24:37.008Z,20.53
2018-08-17T04:27:06.315Z,22.37
2018-08-17T04:29:35.543Z,20.93
2018-08-17T04:32:04.927Z,21.17
2018-08-17T04:34:34.070Z,20.33
2018-08-17T04:37:03.403Z,18.20
2018-08-17T04:39:32.671Z,21.00
2018-08-17T04:42:01.962Z,21.43
2018-08-17T04:44:31.252Z,23.67
2018-08-17T04:47:00.711Z,24.57
2018-08-17T04:49:29.857Z,23.23
2018-08-17T04:51:59.139Z,21.23
2018-08-17T04:54:28.295Z,20.87
2018-08-17T04:56:57.578Z,20.83
2018-08-17T04:59:26.953Z,20.33
2018-08-17T05:01:55.952Z,17.00
2018-08-17T05:04:25.196Z,16.77
2018-08-17T05:06:54.647Z,17.40
2018-08-17T05:09:23.789Z,17.50
2018-08-17T05:11:52.960Z,16.50
2018-08-17T05:14:22.299Z,16.60
2018-08-17T05:16:51.416Z,17.30
2018-08-17T05:19:20.590Z,14.53
2018-08-17T05:21:49.952Z,14.77
2018-08-17T05:24:19.285Z,15.93
2018-08-17T05:26:48.336Z,16.27
2018-08-17T05:29:17.612Z,14.93
2018-08-17T05:31:46.577Z,12.80
2018-08-17T05:34:15.765Z,13.10
2018-08-17T05:36:44.945Z,13.70
2018-08-17T05:39:14.192Z,13.90
2018-08-17T05:41:43.406Z,13.23
2018-08-17T05:44:12.653Z,12.87
2018-08-17T05:46:42.092Z,12.60
2018-08-17T05:49:11.207Z,12.53
2018-08-17T05:51:40.622Z,11.70
2018-08-17T05:54:09.665Z,12.10
2018-08-17T05:56:39.062Z,12.50
2018-08-17T05:59:09.008Z,12.40
2018-08-17T06:01:38.468Z,11.87
2018-08-17T06:04:08.107Z,12.03
2018-08-17T06:06:37.509Z,11.30
2018-08-17T06:09:08.179Z,11.17
2018-08-17T06:11:38.036Z,7.77
2018-08-17T06:14:07.285Z,7.20
2018-08-17T06:16:36.512Z,7.13
2018-08-17T06:19:05.638Z,6.17
2018-08-17T06:21:34.586Z,5.77
2018-08-17T06:24:03.664Z,6.00
2018-08-17T06:26:33.154Z,6.90
2018-08-17T06:29:02.100Z,6.77
2018-08-17T06:31:31.336Z,7.20
2018-08-17T06:34:00.757Z,8.17
2018-08-17T06:36:29.929Z,8.00
2018-08-17T06:38:59.176Z,7.67
2018-08-17T06:41:28.419Z,7.80
2018-08-17T06:43:57.933Z,7.20
2018-08-17T06:46:27.193Z,7.40
2018-08-17T06:48:56.301Z,6.97
2018-08-17T06:51:25.315Z,6.90
2018-08-17T06:53:54.432Z,7.07
2018-08-17T06:56:23.687Z,7.53
2018-08-17T06:58:52.820Z,6.67
2018-08-17T07:01:22.353Z,6.00
2018-08-17T07:03:51.735Z,5.77
2018-08-17T07:06:21.121Z,4.33
2018-08-17T07:08:50.286Z,4.50
2018-08-17T07:11:19.363Z,4.50
2018-08-17T07:13:48.497Z,4.50
2018-08-17T07:16:17.662Z,4.07
2018-08-17T07:18:46.863Z,3.98
2018-08-17T07:21:16.044Z,4.23
2018-08-17T07:23:45.335Z,4.33
2018-08-17T07:26:14.721Z,4.35
2018-08-17T07:28:44.001Z,4.00
2018-08-17T07:31:13.272Z,4.08
2018-08-17T07:33:42.572Z,4.10
2018-08-17T07:36:11.696Z,4.20
2018-08-17T07:38:41.431Z,4.12
2018-08-17T07:41:10.801Z,3.83
2018-08-17T07:43:39.931Z,4.22
2018-08-17T07:46:09.344Z,3.90
2018-08-17T07:48:38.487Z,3.20
2018-08-17T07:51:07.623Z,4.80
2018-08-17T07:53:36.793Z,4.30
2018-08-17T07:56:06.248Z,3.55
2018-08-17T07:58:35.733Z,3.10
2018-08-17T08:01:04.973Z,3.40
2018-08-17T08:03:34.387Z,2.45
2018-08-17T08:06:03.507Z,2.67
2018-08-17T08:08:32.737Z,2.90
2018-08-17T08:11:01.980Z,3.65
2018-08-17T08:13:31.389Z,4.28
2018-08-17T08:16:01.113Z,4.10
2018-08-17T08:18:30.373Z,4.30
2018-08-17T08:20:59.512Z,3.92
2018-08-17T08:23:29.990Z,3.65
2018-08-17T08:25:59.453Z,3.70
2018-08-17T08:28:28.637Z,4.10
2018-08-17T08:31:03.155Z,3.22
2018-08-17T08:33:35.222Z,3.12
2018-08-17T08:36:04.346Z,3.25
2018-08-17T08:38:33.592Z,2.67
2018-08-17T08:41:03.357Z,3.00
2018-08-17T08:43:33.091Z,3.58
2018-08-17T08:46:06.912Z,2.47
2018-08-17T08:48:36.631Z,2.67
2018-08-17T08:51:06.053Z,2.40
2018-08-17T08:53:35.275Z,2.47
2018-08-17T08:56:04.952Z,2.90
2018-08-17T08:58:34.238Z,2.25
2018-08-17T09:01:03.666Z,2.10
2018-08-17T09:03:33.427Z,2.02
2018-08-17T09:06:02.637Z,2.70
2018-08-17T09:08:31.927Z,4.08
2018-08-17T09:11:01.071Z,2.40
2018-08-17T09:13:30.310Z,2.58
2018-08-17T09:16:00.061Z,2.52
2018-08-17T09:18:29.304Z,2.92
2018-08-17T09:20:58.860Z,2.62
2018-08-17T09:23:28.026Z,2.92
2018-08-17T09:25:57.235Z,2.90
2018-08-17T09:28:26.647Z,4.95
2018-08-17T09:30:57.776Z,2.62
2018-08-17T09:33:27.407Z,3.67
2018-08-17T09:35:57.082Z,5.50
2018-08-17T09:38:26.363Z,3.25
2018-08-17T09:40:55.702Z,50.58
2018-08-17T09:43:25.346Z,5.58
2018-08-17T09:45:54.692Z,2.98
2018-08-17T09:48:23.824Z,2.60
2018-08-17T09:50:54.278Z,3.33
2018-08-17T09:53:23.809Z,2.67
2018-08-17T09:55:52.912Z,3.37
2018-08-17T09:58:22.454Z,3.42
2018-08-17T10:00:56.895Z,3.17
2018-08-17T10:03:31.341Z,2.80
2018-08-17T10:06:05.690Z,3.15
2018-08-17T10:10:42.813Z,3.58
2018-08-17T10:13:12.187Z,3.10
2018-08-17T10:15:43.546Z,2.65
2018-08-17T10:18:12.745Z,2.50
2018-08-17T10:20:42.427Z,2.98
2018-08-17T10:23:17.103Z,5.78
2018-08-17T10:25:46.055Z,4.22
2018-08-17T10:28:15.466Z,2.90
2018-08-17T10:30:44.452Z,2.75
2018-08-17T10:33:15.330Z,2.30
2018-08-17T10:35:44.445Z,2.47
2018-08-17T10:38:13.775Z,2.55
2018-08-17T10:40:43.129Z,11.20
2018-08-17T10:43:12.527Z,3.85
2018-08-17T10:45:41.968Z,4.70
2018-08-17T10:48:11.120Z,2.75
2018-08-17T10:50:40.432Z,3.33
2018-08-17T10:53:11.314Z,3.12
2018-08-17T10:55:45.969Z,3.20
2018-08-17T10:58:16.285Z,3.58
2018-08-17T11:00:45.553Z,3.90
2018-08-17T11:03:14.865Z,4.42
2018-08-17T11:05:44.115Z,3.08
2018-08-17T11:08:13.312Z,3.27
2018-08-17T11:10:43.373Z,2.87
2018-08-17T11:13:12.483Z,3.00
2018-08-17T11:15:41.827Z,3.30
2018-08-17T11:18:11.285Z,3.20
2018-08-17T11:20:41.252Z,5.85
2018-08-17T11:23:10.448Z,4.17
2018-08-17T11:25:39.836Z,4.47
2018-08-17T11:28:11.099Z,4.37
2018-08-17T11:30:40.484Z,3.72
2018-08-17T11:33:10.055Z,3.33
2018-08-17T11:35:39.161Z,3.67
2018-08-17T11:38:08.507Z,3.65
2018-08-17T11:40:37.870Z,3.77
2018-08-17T11:43:06.935Z,3.75
2018-08-17T11:45:36.618Z,3.98
2018-08-17T11:48:06.048Z,3.87
2018-08-17T11:50:37.394Z,3.60
2018-08-17T11:53:07.632Z,4.05
2018-08-17T11:55:37.988Z,4.33
2018-08-17T11:58:07.388Z,4.20
2018-08-17T12:00:37.478Z,4.28
2018-08-17T12:03:08.431Z,4.50
2018-08-17T12:05:37.911Z,4.00
2018-08-17T12:08:07.375Z,3.95
2018-08-17T12:10:37.019Z,4.22
2018-08-17T12:13:13.997Z,3.70
2018-08-17T12:15:48.985Z,3.65
2018-08-17T12:18:23.053Z,3.60
2018-08-17T12:20:52.610Z,3.75
2018-08-17T12:23:21.986Z,3.98
2018-08-17T12:25:58.550Z,4.00
2018-08-17T12:28:29.395Z,4.10
2018-08-17T12:30:59.065Z,3.60
2018-08-17T12:33:28.216Z,4.15
2018-08-17T12:35:57.932Z,3.72
2018-08-17T12:38:27.674Z,4.10
2018-08-17T12:40:58.116Z,4.00
2018-08-17T12:43:29.233Z,3.80
2018-08-17T12:45:59.889Z,3.80
2018-08-17T12:48:30.050Z,4.00
2018-08-17T12:51:06.302Z,3.72
2018-08-17T12:53:37.902Z,3.80
2018-08-17T12:56:08.246Z,5.97
2018-08-17T12:58:37.561Z,4.97
2018-08-17T13:01:06.802Z,4.20
2018-08-17T13:03:35.896Z,4.97
2018-08-17T13:06:05.753Z,4.45
2018-08-17T13:08:35.378Z,4.78
2018-08-17T13:11:04.581Z,5.08
2018-08-17T13:13:34.076Z,4.58
2018-08-17T13:16:07.043Z,4.05
2018-08-17T13:18:37.644Z,5.45
2018-08-17T13:21:07.034Z,4.92
2018-08-17T13:23:36.512Z,4.80
2018-08-17T13:26:06.076Z,5.08
2018-08-17T13:28:35.681Z,5.03
2018-08-17T13:31:04.912Z,4.90
2018-08-17T13:33:34.974Z,4.53
2018-08-17T13:36:04.347Z,4.37
2018-08-17T13:38:33.590Z,4.25
2018-08-17T13:41:03.518Z,4.92
2018-08-17T13:43:32.950Z,4.78
2018-08-17T13:46:02.200Z,4.40
2018-08-17T13:48:31.501Z,4.67
2018-08-17T13:51:00.812Z,4.95
2018-08-17T13:53:30.570Z,5.17
2018-08-17T13:56:00.302Z,4.97
2018-08-17T13:58:29.860Z,6.03
2018-08-17T14:00:59.023Z,5.62
2018-08-17T14:03:28.484Z,4.50
2018-08-17T14:05:57.671Z,5.90
2018-08-17T14:08:26.876Z,5.58
2018-08-17T14:10:55.975Z,5.58
2018-08-17T14:13:25.369Z,4.78
2018-08-17T14:15:54.639Z,4.75
2018-08-17T14:18:24.156Z,4.65
2018-08-17T14:20:53.236Z,4.70
2018-08-17T14:23:22.594Z,5.08
2018-08-17T14:25:51.968Z,5.08
2018-08-17T14:28:21.233Z,4.72
2018-08-17T14:30:50.403Z,4.45
2018-08-17T14:33:19.892Z,4.17
2018-08-17T14:35:49.305Z,4.70
2018-08-17T14:38:29.512Z,4.50
2018-08-17T14:40:58.716Z,4.78
2018-08-17T14:43:27.971Z,4.45
2018-08-17T14:45:57.232Z,4.90
2018-08-17T14:48:26.764Z,5.08
2018-08-17T14:50:55.979Z,5.12
2018-08-17T14:53:25.783Z,4.45
2018-08-17T14:55:54.872Z,4.45
2018-08-17T14:58:24.097Z,4.92
2018-08-17T15:00:53.644Z,4.40
2018-08-17T15:03:22.887Z,5.30
2018-08-17T15:05:52.103Z,4.95
2018-08-17T15:08:21.405Z,4.80
2018-08-17T15:10:50.682Z,4.90
2018-08-17T15:13:19.769Z,5.08
2018-08-17T15:15:48.977Z,5.12
2018-08-17T15:18:18.332Z,4.87
2018-08-17T15:20:47.680Z,5.35
2018-08-17T15:23:17.254Z,5.03
2018-08-17T15:25:46.494Z,4.67
2018-08-17T15:28:15.972Z,4.85
2018-08-17T15:30:45.435Z,5.12
2018-08-17T15:33:14.716Z,5.17
2018-08-17T15:35:44.069Z,4.67
2018-08-17T15:38:13.446Z,5.42
2018-08-17T15:40:43.277Z,6.05
2018-08-17T15:43:18.798Z,6.45
2018-08-17T15:45:48.985Z,5.92
2018-08-17T15:48:18.851Z,6.30
2018-08-17T15:50:48.598Z,5.97
2018-08-17T15:53:18.131Z,5.67
2018-08-17T15:55:50.216Z,4.60
2018-08-17T15:58:20.670Z,4.95
2018-08-17T16:00:50.650Z,5.05
2018-08-17T16:03:21.233Z,4.55
2018-08-17T16:05:51.029Z,4.58
2018-08-17T16:08:25.354Z,5.55
2018-08-17T16:10:57.564Z,5.28
2018-08-17T16:13:28.374Z,5.40
2018-08-17T16:15:57.907Z,5.72
2018-08-17T16:18:26.974Z,5.80
2018-08-17T16:20:56.238Z,5.20
2018-08-17T16:23:25.395Z,6.03
2018-08-17T16:25:54.748Z,5.65
2018-08-17T16:28:24.255Z,9.00
2018-08-17T16:30:53.599Z,7.70
2018-08-17T16:33:23.409Z,8.03
2018-08-17T16:35:52.816Z,6.53
2018-08-17T16:38:22.298Z,6.50
2018-08-17T16:40:53.353Z,7.42
2018-08-17T16:43:28.623Z,7.15
2018-08-17T16:45:57.849Z,6.92
2018-08-17T16:48:27.260Z,7.30
2018-08-17T16:50:56.417Z,7.20
2018-08-17T16:53:25.821Z,6.60
2018-08-17T16:55:55.044Z,6.62
2018-08-17T16:58:25.153Z,6.30
2018-08-17T17:00:54.272Z,6.75
2018-08-17T17:03:23.586Z,6.92
2018-08-17T17:06:02.126Z,7.40
2018-08-17T17:08:31.858Z,10.85
2018-08-17T17:11:02.218Z,11.78
2018-08-17T17:13:46.750Z,9.73
2018-08-17T17:16:17.304Z,10.55
2018-08-17T17:18:46.839Z,12.43
2018-08-17T17:21:16.029Z,13.25
2018-08-17T17:23:50.776Z,14.80
2018-08-17T17:26:19.806Z,16.82
2018-08-17T17:28:50.689Z,15.55
2018-08-17T17:31:19.641Z,13.98
2018-08-17T17:33:49.189Z,15.20
2018-08-17T17:36:18.439Z,16.57
2018-08-17T17:38:47.843Z,15.55
2018-08-17T17:41:17.015Z,14.90
2018-08-17T17:43:46.493Z,14.33
2018-08-17T17:46:15.873Z,14.53
2018-08-17T17:48:45.003Z,16.30
2018-08-17T17:51:14.275Z,15.88
2018-08-17T17:53:43.396Z,24.00
2018-08-17T17:56:12.651Z,19.50
2018-08-17T17:58:42.062Z,19.90
2018-08-17T18:01:11.392Z,20.35
2018-08-17T18:03:45.096Z,17.60
2018-08-17T18:06:14.083Z,15.20
2018-08-17T18:08:43.257Z,15.05
2018-08-17T18:11:12.487Z,16.02
2018-08-17T18:13:41.640Z,15.05
2018-08-17T18:16:10.783Z,13.48
2018-08-17T18:18:40.244Z,12.18
2018-08-17T18:21:09.840Z,13.05
2018-08-17T18:23:39.029Z,12.65
2018-08-17T18:26:16.169Z,12.10
2018-08-17T18:28:45.605Z,12.53
2018-08-17T18:31:14.933Z,12.90
2018-08-17T18:33:44.225Z,14.10
2018-08-17T18:36:13.592Z,15.45
2018-08-17T18:38:43.032Z,13.83
2018-08-17T18:41:12.401Z,15.47
2018-08-17T18:43:41.727Z,17.70
2018-08-17T18:46:11.123Z,19.17
2018-08-17T18:48:40.465Z,19.37
2018-08-17T18:51:09.825Z,19.10
2018-08-17T18:53:39.210Z,18.63
2018-08-17T18:56:08.400Z,18.73
2018-08-17T18:58:37.838Z,18.50
2018-08-17T19:01:06.974Z,18.47
2018-08-17T19:03:36.508Z,18.67
2018-08-17T19:06:05.580Z,18.83
2018-08-17T19:08:35.171Z,21.10
2018-08-17T19:11:04.453Z,20.67
2018-08-17T19:13:33.620Z,16.80
2018-08-17T19:16:02.862Z,19.37
2018-08-17T19:18:32.933Z,19.47
2018-08-17T19:21:05.738Z,17.20
2018-08-17T19:23:35.045Z,15.87
2018-08-17T19:26:04.368Z,14.13
2018-08-17T19:28:33.682Z,14.80
2018-08-17T19:31:03.133Z,15.40
2018-08-17T19:33:32.551Z,15.47
2018-08-17T19:36:03.872Z,15.17
2018-08-17T19:38:43.572Z,15.30
2018-08-17T19:41:13.072Z,14.20
2018-08-17T19:43:45.020Z,14.37
2018-08-17T19:46:14.419Z,14.87
2018-08-17T19:48:43.942Z,14.57
2018-08-17T19:51:17.269Z,15.73
2018-08-17T19:53:47.080Z,16.57
2018-08-17T19:56:16.857Z,15.60
2018-08-17T19:58:46.457Z,18.70
2018-08-17T20:01:15.764Z,19.87
2018-08-17T20:03:45.458Z,17.23
2018-08-17T20:06:14.933Z,15.30
2018-08-17T20:08:44.393Z,14.43
2018-08-17T20:11:13.635Z,14.83
2018-08-17T20:13:46.497Z,15.73
2018-08-17T20:16:26.238Z,14.50
2018-08-17T20:19:08.272Z,14.67
2018-08-17T20:21:45.399Z,14.63
2018-08-17T20:24:14.910Z,14.00
2018-08-17T20:26:44.411Z,14.57
2018-08-17T20:29:13.261Z,13.70
2018-08-17T20:31:43.950Z,16.93
2018-08-17T20:34:13.188Z,21.57
2018-08-17T20:36:42.633Z,21.67
2018-08-17T20:39:13.266Z,21.63
2018-08-17T20:41:42.505Z,20.73
2018-08-17T20:44:11.757Z,20.37
2018-08-17T20:46:40.936Z,22.97
2018-08-17T20:49:10.267Z,27.90
2018-08-17T20:51:45.542Z,25.97
2018-08-17T20:54:14.835Z,27.90
2018-08-17T20:56:44.314Z,18.77
2018-08-17T20:59:14.284Z,20.33
2018-08-17T21:01:45.023Z,18.20
2018-08-17T21:04:14.387Z,18.73
2018-08-17T21:06:43.499Z,19.03
2018-08-17T21:09:12.665Z,18.60
2018-08-17T21:11:42.082Z,18.20
2018-08-17T21:14:11.664Z,18.67
2018-08-17T21:16:40.969Z,17.00
2018-08-17T21:19:10.969Z,17.40
2018-08-17T21:21:40.731Z,16.97
2018-08-17T21:24:10.493Z,16.80
2018-08-17T21:26:39.811Z,14.47
2018-08-17T21:29:09.183Z,16.87
2018-08-17T21:31:38.515Z,16.10
2018-08-17T21:34:07.833Z,14.33
2018-08-17T21:36:37.244Z,16.07
2018-08-17T21:39:15.215Z,18.37
2018-08-17T21:41:45.468Z,16.33
2018-08-17T21:44:17.211Z,16.90
2018-08-17T21:47:05.402Z,17.07
2018-08-17T21:49:35.772Z,19.00
2018-08-17T21:52:07.499Z,18.77
2018-08-17T21:54:36.757Z,19.27
2018-08-17T21:57:05.870Z,21.17
2018-08-17T21:59:40.485Z,18.63
2018-08-17T22:02:10.988Z,17.90
2018-08-17T22:04:39.969Z,19.20
2018-08-17T22:07:13.580Z,20.53
2018-08-17T22:09:43.688Z,18.50
2018-08-17T22:12:13.412Z,22.23
2018-08-17T22:14:45.076Z,18.33
2018-08-17T22:17:25.378Z,19.77
2018-08-17T22:19:55.654Z,20.33
2018-08-17T22:22:24.812Z,21.00
2018-08-17T22:24:55.853Z,19.80
2018-08-17T22:30:03.406Z,18.97
2018-08-17T22:32:32.381Z,19.33
2018-08-17T22:35:02.551Z,18.90
2018-08-17T22:37:31.892Z,17.97
2018-08-17T22:40:01.527Z,18.63
2018-08-17T22:42:31.849Z,16.60
2018-08-17T22:45:01.952Z,16.30
2018-08-17T22:47:30.984Z,16.97
2018-08-17T22:50:01.267Z,15.50
2018-08-17T22:52:34.156Z,15.27
2018-08-17T22:55:05.217Z,14.80
2018-08-17T22:57:34.541Z,14.23
2018-08-17T23:00:29.867Z,13.50
2018-08-17T23:03:00.305Z,13.53
2018-08-17T23:05:30.968Z,14.13
2018-08-17T23:07:59.952Z,14.10
2018-08-17T23:10:29.588Z,12.50
2018-08-17T23:12:59.270Z,13.97
2018-08-17T23:15:28.311Z,13.40
2018-08-17T23:18:01.888Z,13.27
2018-08-17T23:20:34.544Z,12.50
2018-08-17T23:23:04.831Z,11.43
2018-08-17T23:25:34.076Z,13.40
2018-08-17T23:28:03.455Z,12.73
2018-08-17T23:30:32.732Z,12.97
2018-08-17T23:33:02.003Z,12.33
2018-08-17T23:35:31.195Z,12.90
2018-08-17T23:38:00.433Z,13.13
2018-08-17T23:40:29.850Z,12.97
2018-08-17T23:42:58.941Z,12.50
2018-08-17T23:45:28.493Z,12.43
2018-08-17T23:47:57.940Z,12.80
2018-08-17T23:50:27.199Z,12.40
2018-08-17T23:52:56.391Z,12.20
2018-08-17T23:55:25.613Z,11.10
2018-08-17T23:57:54.749Z,12.17
